Time;durP1;ratioP1;P1;durP2;ratioP2;P2;SDS_P1;SDS_P2;PMS_P1;PMS_P2;Temp;Humidity;BMP_temperature;BMP_pressure;BME280_temperature;BME280_humidity;BME280_pressure;Samples;Min_cycle;Max_cycle;Signal;HPM_P1;HPM_P2
2022/06/26 00:00:37;;;;;;;2.85;2.03;;;;;;;28.69;45.73;100986.06;5050719;28;20095;-73
2022/06/26 00:03:03;;;;;;;3.85;2.05;;;;;;;28.67;45.59;100987.97;5050835;28;20047;-73
2022/06/26 00:05:28;;;;;;;3.60;2.10;;;;;;;28.65;45.70;100987.22;5051598;28;20031;-72
2022/06/26 00:07:54;;;;;;;3.38;2.00;;;;;;;28.67;45.53;100989.81;5051867;28;20043;-73
2022/06/26 00:10:19;;;;;;;3.60;2.20;;;;;;;28.64;45.50;100980.97;5052135;28;20033;-73
2022/06/26 00:12:44;;;;;;;3.65;2.10;;;;;;;28.65;45.44;100989.91;5052136;28;20378;-73
2022/06/26 00:15:10;;;;;;;2.45;1.90;;;;;;;28.64;45.46;100982.78;5051936;28;20040;-73
2022/06/26 00:17:36;;;;;;;3.08;2.20;;;;;;;28.64;45.25;100989.03;5071353;28;20511;-73
2022/06/26 00:20:02;;;;;;;3.22;2.08;;;;;;;28.59;45.69;100991.13;5071622;28;20029;-73
2022/06/26 00:22:28;;;;;;;3.22;2.10;;;;;;;28.59;45.79;100992.94;5072114;28;20028;-73
2022/06/26 00:24:53;;;;;;;2.53;1.73;;;;;;;28.60;45.70;100983.94;5061611;28;20095;-72
2022/06/26 00:27:19;;;;;;;3.47;1.85;;;;;;;28.60;45.45;100979.44;5050592;28;20039;-73
2022/06/26 00:29:45;;;;;;;2.78;2.05;;;;;;;28.62;45.16;100980.19;5051742;28;20025;-72
2022/06/26 00:32:10;;;;;;;3.30;2.20;;;;;;;28.62;45.28;100990.06;5051839;28;20060;-73
2022/06/26 00:34:35;;;;;;;2.47;2.00;;;;;;;28.60;45.31;100982.13;5052165;28;20057;-73
2022/06/26 00:37:01;;;;;;;3.25;2.08;;;;;;;28.60;45.41;100976.75;5071478;28;20149;-73
2022/06/26 00:39:26;;;;;;;2.80;2.20;;;;;;;28.60;45.28;100981.25;5069964;28;20146;-73
2022/06/26 00:41:52;;;;;;;5.43;2.22;;;;;;;28.59;45.70;100985.75;5069879;28;20406;-73
2022/06/26 00:44:25;;;;;;;2.88;2.05;;;;;;;28.58;45.34;100986.72;5071196;28;20302;-73
2022/06/26 00:46:51;;;;;;;3.03;2.00;;;;;;;28.59;45.57;100992.94;5070001;28;20044;-73
2022/06/26 00:49:17;;;;;;;3.28;1.90;;;;;;;28.58;45.55;100988.53;5071141;28;20028;-72
2022/06/26 00:52:01;;;;;;;3.08;2.20;;;;;;;28.59;45.03;101003.69;5071468;28;20885;-73
2022/06/26 00:54:28;;;;;;;3.80;2.10;;;;;;;28.55;45.56;101059.31;5063995;28;20029;-73
2022/06/26 00:56:57;;;;;;;3.00;1.92;;;;;;;28.54;45.43;101051.38;5051207;28;20029;-73
2022/06/26 00:59:24;;;;;;;3.30;1.95;;;;;;;28.53;45.63;101049.63;5049966;28;20044;-73
2022/06/26 01:01:50;;;;;;;2.88;2.00;;;;;;;28.52;45.28;101021.06;5050784;28;20510;-73
2022/06/26 01:04:16;;;;;;;3.10;2.10;;;;;;;28.51;45.68;101047.03;5050850;28;20032;-73
2022/06/26 01:06:42;;;;;;;2.70;2.00;;;;;;;28.51;45.38;101060.44;5050913;28;20033;-73
2022/06/26 01:09:07;;;;;;;2.42;2.00;;;;;;;28.51;45.61;101047.03;5049090;28;20021;-72
2022/06/26 01:11:32;;;;;;;3.10;1.88;;;;;;;28.51;45.32;101043.47;5051129;28;20017;-72
2022/06/26 01:13:58;;;;;;;3.25;1.90;;;;;;;28.49;45.44;101046.25;5050959;28;20074;-73
2022/06/26 01:16:24;;;;;;;2.67;1.90;;;;;;;28.48;45.27;101057.09;5050511;28;20020;-72
2022/06/26 01:18:52;;;;;;;2.95;2.00;;;;;;;28.49;45.65;101053.44;5050749;28;20769;-73
2022/06/26 01:21:19;;;;;;;2.45;2.00;;;;;;;28.49;45.21;101054.28;5049305;28;20122;-72
2022/06/26 01:23:46;;;;;;;2.50;1.90;;;;;;;28.47;45.07;101048.19;5050589;28;20033;-73
2022/06/26 01:26:12;;;;;;;3.35;1.98;;;;;;;28.47;45.54;101050.84;5049185;28;20025;-73
2022/06/26 01:28:37;;;;;;;2.75;1.80;;;;;;;28.48;45.48;101057.09;5058241;28;20471;-72
2022/06/26 01:31:03;;;;;;;2.70;2.00;;;;;;;28.46;45.61;101059.84;5070134;28;20031;-72
2022/06/26 01:33:29;;;;;;;2.45;1.90;;;;;;;28.46;45.23;101051.81;5069141;28;20398;-73
2022/06/26 01:35:55;;;;;;;3.08;1.90;;;;;;;28.50;45.02;101042.63;5063273;28;20102;-72
2022/06/26 01:38:22;;;;;;;3.40;1.90;;;;;;;28.49;45.32;101042.69;5070113;28;20502;-73
2022/06/26 01:40:50;;;;;;;2.75;1.85;;;;;;;28.49;45.06;101037.34;5070036;28;20766;-73
2022/06/26 01:43:20;;;;;;;2.10;1.73;;;;;;;28.48;45.51;101039.16;5070417;28;20462;-73
2022/06/26 01:45:47;;;;;;;3.20;1.98;;;;;;;28.49;44.91;101034.66;5070334;28;20025;-73
2022/06/26 01:48:13;;;;;;;3.28;2.00;;;;;;;28.46;45.24;101025.00;5070077;28;20029;-73
2022/06/26 01:50:38;;;;;;;2.45;1.80;;;;;;;28.47;45.51;101024.03;5068620;28;20040;-73
2022/06/26 01:53:04;;;;;;;3.35;1.80;;;;;;;28.45;45.50;101031.31;5068996;28;20478;-73
2022/06/26 01:55:31;;;;;;;2.80;1.90;;;;;;;28.46;45.05;101037.53;5054087;28;20368;-72
2022/06/26 01:58:01;;;;;;;2.70;1.90;;;;;;;28.45;45.16;101047.41;5048372;28;20133;-72
2022/06/26 02:00:30;;;;;;;2.10;1.90;;;;;;;28.46;45.28;101069.72;5050217;28;20017;-73
2022/06/26 02:02:55;;;;;;;2.22;1.90;;;;;;;28.44;45.06;101085.88;5048262;28;20029;-73
2022/06/26 02:05:21;;;;;;;2.45;1.85;;;;;;;28.43;45.36;101107.41;5049863;28;20052;-73
2022/06/26 02:07:47;;;;;;;2.28;1.80;;;;;;;28.43;45.28;101108.28;5063747;28;20024;-72
2022/06/26 02:15:40;;;;;;;2.58;2.15;;;;;;;28.41;45.36;101102.16;5049469;28;20047;-72
2022/06/26 02:18:06;;;;;;;2.47;2.00;;;;;;;28.41;45.38;101090.56;5049584;28;20032;-72
2022/06/26 02:20:31;;;;;;;2.30;1.98;;;;;;;28.40;45.19;101105.81;5048240;28;20060;-73
2022/06/26 02:22:57;;;;;;;2.20;1.83;;;;;;;28.40;45.15;101099.56;5049308;28;20116;-73
2022/06/26 02:25:22;;;;;;;2.15;1.90;;;;;;;28.41;45.23;101106.66;5049087;28;20078;-73
2022/06/26 02:27:48;;;;;;;2.63;1.70;;;;;;;28.41;45.12;101110.22;5049795;28;20411;-73
2022/06/26 02:30:14;;;;;;;2.60;1.95;;;;;;;28.38;45.22;101102.34;5049359;28;20083;-73
2022/06/26 02:32:40;;;;;;;2.10;1.90;;;;;;;28.38;45.52;101094.28;5049501;28;20032;-73
2022/06/26 02:35:06;;;;;;;4.43;2.00;;;;;;;28.36;45.44;101088.13;5054795;28;20037;-73
2022/06/26 02:37:32;;;;;;;2.47;1.90;;;;;;;28.38;45.25;101075.50;5049342;28;20075;-73
2022/06/26 02:39:57;;;;;;;2.40;1.85;;;;;;;28.40;45.14;101078.97;5047867;28;20033;-73
2022/06/26 02:42:23;;;;;;;2.33;1.83;;;;;;;28.39;45.07;101087.09;5054038;28;20032;-73
2022/06/26 02:44:48;;;;;;;2.03;1.83;;;;;;;28.39;45.02;101089.78;5069135;28;20028;-72
2022/06/26 02:47:13;;;;;;;2.67;1.90;;;;;;;28.40;44.96;101088.84;5068111;28;20551;-73
2022/06/26 02:49:39;;;;;;;2.15;1.73;;;;;;;28.38;45.08;101078.19;5068510;28;20041;-73
2022/06/26 02:52:05;;;;;;;2.10;1.80;;;;;;;28.36;45.30;101076.56;5069115;28;20463;-73
2022/06/26 02:54:30;;;;;;;2.58;2.00;;;;;;;28.38;45.25;101078.19;5066887;28;20025;-73
2022/06/26 02:56:55;;;;;;;3.35;1.88;;;;;;;28.37;44.89;101071.09;5069077;28;20039;-73
2022/06/26 02:59:21;;;;;;;3.75;1.90;;;;;;;28.35;45.09;101072.16;5064887;28;20040;-73
2022/06/26 03:01:46;;;;;;;2.20;1.90;;;;;;;28.36;45.28;101065.84;5047333;28;20041;-73
2022/06/26 03:04:11;;;;;;;3.45;2.00;;;;;;;28.39;44.79;101060.28;5048629;28;20475;-73
2022/06/26 03:06:37;;;;;;;2.03;1.75;;;;;;;28.40;44.77;101070.94;5048276;28;20078;-73
2022/06/26 03:09:02;;;;;;;2.00;1.80;;;;;;;28.39;44.94;101073.69;5047329;28;20040;-73
2022/06/26 03:11:28;;;;;;;2.42;1.80;;;;;;;28.38;44.85;101077.31;5048789;28;20024;-73
2022/06/26 03:13:53;;;;;;;1.90;1.67;;;;;;;28.39;44.88;101084.44;5068224;28;20093;-73
2022/06/26 03:16:18;;;;;;;2.42;1.80;;;;;;;28.38;44.75;101080.00;5068714;28;20115;-73
2022/06/26 03:18:44;;;;;;;2.13;1.80;;;;;;;28.38;44.78;101080.88;5067771;28;20103;-73
2022/06/26 03:21:09;;;;;;;1.90;1.63;;;;;;;28.36;44.78;101073.88;5068319;28;20123;-73
2022/06/26 03:26:18;;;;;;;2.17;1.60;;;;;;;28.38;44.97;101078.19;5049076;28;20082;-74
2022/06/26 03:28:44;;;;;;;2.55;1.60;;;;;;;28.37;44.63;101076.47;5048462;28;20402;-73
2022/06/26 03:31:09;;;;;;;2.20;1.70;;;;;;;28.36;44.96;101081.94;5047685;28;20032;-73
2022/06/26 03:33:34;;;;;;;2.40;1.75;;;;;;;28.36;44.63;101071.22;5046516;28;20031;-73
2022/06/26 03:36:00;;;;;;;1.88;1.67;;;;;;;28.36;44.85;101079.25;5057591;28;20402;-73
2022/06/26 03:38:25;;;;;;;2.83;1.90;;;;;;;28.33;44.83;101074.91;5066369;28;20032;-73
2022/06/26 03:40:52;;;;;;;2.42;1.70;;;;;;;28.35;44.62;101080.19;5046550;28;20106;-73
2022/06/26 03:43:17;;;;;;;2.42;1.80;;;;;;;28.34;44.67;101079.34;5047125;28;20104;-73
2022/06/26 03:45:42;;;;;;;2.63;1.65;;;;;;;28.34;44.71;101070.41;5048183;28;20491;-73
2022/06/26 03:48:08;;;;;;;2.10;1.60;;;;;;;28.32;44.61;101081.22;5046659;28;20027;-73
2022/06/26 03:50:33;;;;;;;1.95;1.63;;;;;;;28.31;44.51;101073.25;5047988;28;20577;-73
2022/06/26 03:52:59;;;;;;;2.05;1.60;;;;;;;28.32;44.92;101078.53;5047983;28;20025;-73
2022/06/26 03:55:24;;;;;;;2.67;1.70;;;;;;;28.31;45.06;101065.22;5048185;28;20031;-73
2022/06/26 03:57:49;;;;;;;1.90;1.70;;;;;;;28.32;44.72;101062.44;5047438;28;20114;-73
2022/06/26 04:00:15;;;;;;;2.40;1.80;;;;;;;28.30;44.63;101067.03;5047987;28;20151;-73
2022/06/26 04:02:41;;;;;;;1.80;1.40;;;;;;;28.30;44.93;101060.84;5046744;28;20046;-73
2022/06/26 04:05:07;;;;;;;1.70;1.58;;;;;;;28.30;44.79;101075.06;5048065;28;20040;-73
2022/06/26 04:07:33;;;;;;;1.92;1.60;;;;;;;28.31;44.67;101082.16;5048257;28;20044;-73
2022/06/26 04:09:58;;;;;;;2.28;1.70;;;;;;;28.30;44.91;101083.13;5047601;28;20025;-73
2022/06/26 04:12:24;;;;;;;1.90;1.70;;;;;;;28.31;44.66;101089.34;5047609;28;20029;-73
2022/06/26 04:14:49;;;;;;;1.88;1.50;;;;;;;28.29;44.93;101088.59;5048092;28;20032;-73
2022/06/26 04:17:14;;;;;;;1.92;1.58;;;;;;;28.26;44.76;101094.97;5048134;28;20040;-73
2022/06/26 04:19:40;;;;;;;2.13;1.60;;;;;;;28.29;44.54;101102.88;5047932;28;20036;-73
2022/06/26 04:22:06;;;;;;;2.03;1.60;;;;;;;28.27;44.64;101112.81;5047849;28;20067;-73
2022/06/26 04:24:32;;;;;;;2.25;1.90;;;;;;;28.23;44.97;101124.66;5046341;28;20107;-73
2022/06/26 04:26:57;;;;;;;1.52;1.42;;;;;;;28.23;44.82;101130.03;5047772;28;20811;-73
2022/06/26 04:29:23;;;;;;;2.03;1.58;;;;;;;28.22;44.75;101113.06;5047904;28;20036;-73
2022/06/26 04:31:48;;;;;;;2.10;1.60;;;;;;;28.21;44.78;101115.81;5047789;28;20483;-74
2022/06/26 04:34:14;;;;;;;1.90;1.55;;;;;;;28.20;45.01;101131.03;5047225;28;20083;-73
2022/06/26 04:36:39;;;;;;;1.60;1.40;;;;;;;28.21;44.83;101132.78;5040356;28;20064;-73
2022/06/26 04:39:04;;;;;;;1.77;1.40;;;;;;;28.19;44.82;101128.44;5047877;28;20390;-73
2022/06/26 04:41:36;;;;;;;2.45;1.70;;;;;;;28.19;44.99;101132.00;5047335;28;20053;-73
2022/06/26 04:44:07;;;;;;;2.10;1.60;;;;;;;28.20;44.78;101140.91;5048918;28;20032;-73
2022/06/26 04:46:33;;;;;;;1.95;1.67;;;;;;;28.21;44.71;101140.81;5051681;28;20029;-73
2022/06/26 04:48:59;;;;;;;1.85;1.60;;;;;;;28.20;44.87;101138.22;5050906;28;20517;-73
2022/06/26 04:51:24;;;;;;;2.03;1.50;;;;;;;28.20;44.61;101143.59;5051635;28;20049;-72
2022/06/26 04:53:50;;;;;;;2.38;1.50;;;;;;;28.19;44.64;101141.84;5050798;28;20033;-73
2022/06/26 04:56:15;;;;;;;1.52;1.40;;;;;;;28.17;44.63;101138.41;5039130;28;20111;-72
2022/06/26 04:58:41;;;;;;;1.67;1.45;;;;;;;28.15;44.94;101137.63;5050880;28;20029;-73
2022/06/26 05:01:07;;;;;;;1.48;1.38;;;;;;;28.16;44.78;101144.72;5050720;28;20087;-72
2022/06/26 05:03:33;;;;;;;2.00;1.40;;;;;;;28.16;44.63;101155.44;5051269;28;20111;-72
2022/06/26 05:05:58;;;;;;;1.85;1.40;;;;;;;28.15;44.97;101159.94;5049644;28;20136;-72
2022/06/26 05:08:24;;;;;;;1.55;1.38;;;;;;;28.14;44.53;101160.88;5049427;28;20052;-72
2022/06/26 05:10:49;;;;;;;2.28;1.50;;;;;;;28.13;44.96;101163.59;5067779;28;20056;-72
2022/06/26 05:13:14;;;;;;;1.65;1.50;;;;;;;28.14;44.58;101170.72;5070548;28;20440;-72
2022/06/26 05:15:40;;;;;;;1.92;1.60;;;;;;;28.15;44.72;101188.56;5070670;28;20037;-72
2022/06/26 05:18:05;;;;;;;1.83;1.50;;;;;;;28.15;44.54;101193.91;5070887;28;20135;-72
2022/06/26 05:20:30;;;;;;;2.03;1.40;;;;;;;28.13;44.70;101204.72;5070108;28;20070;-72
2022/06/26 05:22:56;;;;;;;1.77;1.40;;;;;;;28.14;44.71;101205.59;5070363;28;20058;-71
2022/06/26 05:25:21;;;;;;;1.60;1.40;;;;;;;28.14;44.96;101200.22;5070646;28;20471;-72
2022/06/26 05:27:47;;;;;;;2.47;1.50;;;;;;;28.14;44.65;101197.53;5069154;28;20047;-72
2022/06/26 05:30:12;;;;;;;2.75;1.40;;;;;;;28.13;44.70;101193.09;5068543;28;20482;-72
2022/06/26 05:32:37;;;;;;;1.60;1.33;;;;;;;28.12;44.64;101197.59;5069118;28;20047;-72
2022/06/26 05:35:03;;;;;;;1.60;1.50;;;;;;;28.11;44.57;101203.06;5063808;28;20055;-72
2022/06/26 05:37:28;;;;;;;1.52;1.40;;;;;;;28.12;44.35;101207.44;5049657;28;20029;-72
2022/06/26 05:39:54;;;;;;;1.30;1.20;;;;;;;28.10;44.50;101210.22;5032035;28;20160;-72
2022/06/26 05:42:19;;;;;;;1.65;1.30;;;;;;;28.10;44.42;101215.59;5049789;28;20506;-72
2022/06/26 05:44:44;;;;;;;1.73;1.42;;;;;;;28.10;44.71;101220.06;5050341;28;20667;-72
2022/06/26 05:47:10;;;;;;;1.58;1.48;;;;;;;28.09;44.56;101215.66;5050084;28;20021;-72
2022/06/26 05:49:36;;;;;;;1.50;1.40;;;;;;;28.10;44.42;101222.75;5050153;28;20032;-72
2022/06/26 05:52:01;;;;;;;1.75;1.50;;;;;;;28.10;44.52;101222.75;5049890;28;20040;-72
2022/06/26 05:54:26;;;;;;;1.50;1.40;;;;;;;28.10;44.73;101230.81;5049204;28;20040;-72
2022/06/26 05:56:52;;;;;;;1.73;1.40;;;;;;;28.08;44.16;101236.25;5050275;28;20087;-72
2022/06/26 05:59:17;;;;;;;2.92;1.42;;;;;;;28.08;44.74;101241.59;5050175;28;20048;-71
2022/06/26 06:01:43;;;;;;;2.25;1.60;;;;;;;28.10;44.42;101252.25;5031884;28;20407;-72
2022/06/26 06:04:08;;;;;;;1.67;1.35;;;;;;;28.08;44.58;101255.00;5049686;28;20033;-72
2022/06/26 06:06:34;;;;;;;1.90;1.55;;;;;;;28.09;44.43;101259.41;5049354;28;20032;-72
2022/06/26 06:08:59;;;;;;;2.63;1.35;;;;;;;28.11;44.42;101257.53;5048630;28;20128;-72
2022/06/26 06:11:24;;;;;;;1.83;1.40;;;;;;;28.13;44.50;101252.06;5048828;28;20017;-72
2022/06/26 06:13:51;;;;;;;1.70;1.40;;;;;;;28.14;44.44;101256.50;5049348;28;20090;-75
2022/06/26 06:16:17;;;;;;;2.33;1.38;;;;;;;28.12;44.35;101261.06;5049739;28;20487;-72
2022/06/26 06:18:42;;;;;;;1.88;1.40;;;;;;;28.14;44.34;101257.38;5047489;28;20036;-71
2022/06/26 06:21:07;;;;;;;1.73;1.30;;;;;;;28.17;44.38;101256.38;5031514;28;20072;-72
2022/06/26 06:23:33;;;;;;;1.95;1.45;;;;;;;28.15;44.49;101259.13;5048129;28;20029;-73
2022/06/26 06:25:58;;;;;;;1.80;1.40;;;;;;;28.16;44.09;101263.53;5049657;28;20551;-71
2022/06/26 06:28:23;;;;;;;1.65;1.40;;;;;;;28.15;44.15;101267.16;5048858;28;20048;-71
2022/06/26 06:30:49;;;;;;;2.33;1.33;;;;;;;28.17;44.27;101272.47;5049549;28;20039;-71
2022/06/26 06:33:14;;;;;;;1.58;1.40;;;;;;;28.16;44.12;101279.63;5048348;28;20056;-71
2022/06/26 06:35:40;;;;;;;2.10;1.40;;;;;;;28.17;44.08;101277.81;5056904;28;20032;-72
2022/06/26 06:38:06;;;;;;;1.90;1.40;;;;;;;28.16;44.36;101286.81;5067986;28;20027;-71
2022/06/26 06:40:32;;;;;;;4.72;1.38;;;;;;;28.15;44.22;101285.06;5049247;28;20451;-72
2022/06/26 06:42:57;;;;;;;2.35;1.33;;;;;;;28.15;44.31;101285.94;5049485;28;20032;-72
2022/06/26 06:45:22;;;;;;;1.70;1.40;;;;;;;28.15;44.46;101293.09;5049013;28;20490;-71
2022/06/26 06:47:48;;;;;;;1.98;1.48;;;;;;;28.13;44.04;101298.53;5049074;28;20057;-71
2022/06/26 06:50:13;;;;;;;2.90;1.35;;;;;;;28.13;44.27;101308.34;5048320;28;20043;-71
2022/06/26 06:52:39;;;;;;;1.90;1.50;;;;;;;28.14;44.26;101308.31;5048807;28;20072;-71
2022/06/26 06:55:05;;;;;;;1.85;1.40;;;;;;;28.13;44.33;101301.22;5048840;28;20029;-72
2022/06/26 06:57:30;;;;;;;1.60;1.40;;;;;;;28.17;44.18;101308.19;5047659;28;20546;-72
2022/06/26 06:59:56;;;;;;;1.70;1.50;;;;;;;28.19;44.22;101302.72;5046879;28;20108;-71
2022/06/26 07:02:21;;;;;;;1.80;1.50;;;;;;;28.20;44.53;101308.00;5048809;28;20598;-71
2022/06/26 07:04:46;;;;;;;2.20;1.38;;;;;;;28.22;44.06;101313.28;5047309;28;20471;-69
2022/06/26 07:07:12;;;;;;;1.50;1.40;;;;;;;28.20;44.31;101316.03;5048233;28;20090;-73
2022/06/26 07:09:37;;;;;;;1.95;1.60;;;;;;;28.21;44.19;101317.78;5048308;28;20025;-73
2022/06/26 07:12:03;;;;;;;1.80;1.50;;;;;;;28.22;44.21;101318.66;5047479;28;20037;-74
2022/06/26 07:14:29;;;;;;;2.00;1.50;;;;;;;28.21;44.50;101325.81;5047499;28;20021;-73
2022/06/26 07:16:54;;;;;;;2.35;1.50;;;;;;;28.23;44.22;101326.63;5047631;28;20036;-73
2022/06/26 07:19:20;;;;;;;2.05;1.60;;;;;;;28.23;44.15;101336.47;5048473;28;20615;-76
2022/06/26 07:21:45;;;;;;;6.53;1.80;;;;;;;28.05;45.19;101343.63;5050519;28;20120;-68
2022/06/26 07:24:11;;;;;;;1.98;1.50;;;;;;;28.17;44.62;101340.34;5063024;28;20036;-66
2022/06/26 07:26:37;;;;;;;3.10;1.60;;;;;;;28.28;44.46;101347.81;5058802;28;20029;-66
2022/06/26 07:29:02;;;;;;;2.10;1.63;;;;;;;28.28;44.70;101349.63;5048046;28;20777;-67
2022/06/26 07:31:28;;;;;;;2.55;1.58;;;;;;;28.30;44.50;101363.84;5046916;28;20040;-67
2022/06/26 07:36:38;;;;;;;2.90;1.60;;;;;;;28.25;44.85;101356.00;5066062;28;20051;-66
2022/06/26 07:39:04;;;;;;;2.65;1.55;;;;;;;28.27;44.58;101355.94;5061374;28;20151;-66
2022/06/26 07:41:29;;;;;;;3.55;1.55;;;;;;;28.25;44.64;101348.84;5048110;28;20049;-66
2022/06/26 07:43:54;;;;;;;4.07;1.70;;;;;;;28.25;44.64;101370.28;5048267;28;20036;-67
2022/06/26 07:46:20;;;;;;;4.25;1.60;;;;;;;28.27;44.70;101362.16;5048212;28;20075;-66
2022/06/26 07:48:45;;;;;;;2.10;1.73;;;;;;;28.27;44.90;101377.38;5046232;28;20025;-67
2022/06/26 07:51:11;;;;;;;3.03;1.70;;;;;;;28.30;44.63;101387.97;5046169;28;20071;-67
2022/06/26 07:53:36;;;;;;;3.13;1.90;;;;;;;28.30;45.01;101374.56;5048158;28;20037;-67
2022/06/26 07:56:03;;;;;;;2.97;1.98;;;;;;;28.30;45.07;101387.97;5047927;28;20037;-66
2022/06/26 07:58:29;;;;;;;3.30;1.75;;;;;;;28.30;45.07;101379.94;5047991;28;20111;-67
2022/06/26 08:00:54;;;;;;;2.58;1.73;;;;;;;28.33;45.22;101367.22;5047867;28;20136;-67
2022/06/26 08:03:19;;;;;;;2.95;1.70;;;;;;;28.35;44.82;101376.06;5046349;28;20095;-67
2022/06/26 08:05:46;;;;;;;3.22;1.80;;;;;;;28.38;44.88;101381.25;5047892;28;20128;-66
2022/06/26 08:08:12;;;;;;;2.53;1.85;;;;;;;28.37;44.85;101398.28;5047700;28;20087;-66
2022/06/26 08:10:37;;;;;;;2.92;1.75;;;;;;;28.35;45.10;101376.06;5047678;28;20099;-66
2022/06/26 08:13:04;;;;;;;3.80;1.70;;;;;;;28.34;45.10;101377.00;5054976;28;20029;-67
2022/06/26 08:15:30;;;;;;;4.72;1.80;;;;;;;28.37;45.29;101376.81;5058411;28;20067;-67
2022/06/26 08:17:55;;;;;;;5.18;2.70;;;;;;;28.40;44.50;101378.47;5050461;28;20483;-67
2022/06/26 08:20:21;;;;;;;9.10;3.85;;;;;;;28.41;44.09;101382.91;5051359;28;20029;-67
2022/06/26 08:22:46;;;;;;;6.38;3.53;;;;;;;28.42;44.29;101384.66;5051122;28;20033;-67
2022/06/26 08:25:12;;;;;;;6.28;4.22;;;;;;;28.43;43.83;101386.34;5051846;28;20468;-67
2022/06/26 08:27:37;;;;;;;6.00;4.20;;;;;;;28.44;43.58;101394.31;5051769;28;20175;-67
2022/06/26 08:30:03;;;;;;;6.75;3.80;;;;;;;28.45;44.19;101400.56;5051709;28;20673;-67
2022/06/26 08:32:29;;;;;;;4.47;3.72;;;;;;;28.45;43.93;101398.75;5049972;28;20029;-66
2022/06/26 08:34:54;;;;;;;5.85;3.90;;;;;;;28.47;43.55;101409.41;5051885;28;20031;-67
2022/06/26 08:37:20;;;;;;;9.27;3.92;;;;;;;28.42;43.13;101424.88;5047396;28;20033;-66
2022/06/26 08:39:45;;;;;;;6.63;3.80;;;;;;;28.39;42.49;101427.69;5051135;28;20120;-67
2022/06/26 08:42:11;;;;;;;5.45;3.40;;;;;;;28.39;42.09;101425.03;5050153;28;20140;-67
2022/06/26 08:44:42;;;;;;;4.25;3.20;;;;;;;28.39;41.84;101427.69;5049918;28;20032;-67
2022/06/26 08:47:10;;;;;;;5.07;3.50;;;;;;;28.40;41.53;101424.06;5051529;28;20028;-67
2022/06/26 08:49:35;;;;;;;5.50;3.60;;;;;;;28.41;41.35;101418.66;5060698;28;20679;-67
2022/06/26 08:52:02;;;;;;;7.75;3.90;;;;;;;28.41;41.06;101412.41;5059338;28;20041;-67
2022/06/26 08:54:28;;;;;;;7.47;3.65;;;;;;;28.42;41.53;101422.19;5050711;28;20051;-70
2022/06/26 08:56:54;;;;;;;4.60;3.15;;;;;;;28.47;41.14;101431.72;5051339;28;20451;-69
2022/06/26 08:59:20;;;;;;;4.68;2.88;;;;;;;28.48;41.14;101429.91;5050346;28;20123;-66
2022/06/26 09:01:47;;;;;;;4.20;3.00;;;;;;;28.50;41.68;101433.38;5051151;28;20124;-67
2022/06/26 09:04:13;;;;;;;3.42;2.70;;;;;;;28.49;41.86;101445.03;5053453;28;20059;-67
2022/06/26 09:06:41;;;;;;;3.35;2.60;;;;;;;28.47;41.22;101436.22;5071253;28;20032;-67
2022/06/26 09:09:24;;;;;;;3.40;2.83;;;;;;;28.49;41.93;101448.59;5070872;28;20064;-66
2022/06/26 09:11:55;;;;;;;4.17;2.90;;;;;;;28.49;41.57;101443.22;5071001;28;20489;-67
2022/06/26 09:14:21;;;;;;;3.78;2.70;;;;;;;28.53;41.12;101442.13;5061573;28;20036;-66
2022/06/26 09:16:48;;;;;;;4.68;2.80;;;;;;;28.50;41.32;101452.16;5049641;28;20036;-68
2022/06/26 09:19:20;;;;;;;4.45;3.00;;;;;;;28.47;41.46;101455.00;5055052;28;20405;-67
2022/06/26 09:21:49;;;;;;;4.90;3.10;;;;;;;28.48;40.81;101444.16;5070729;28;20028;-66
2022/06/26 09:24:18;;;;;;;4.55;2.55;;;;;;;28.49;41.15;101459.31;5070069;28;20033;-66
2022/06/26 09:26:44;;;;;;;3.58;2.50;;;;;;;28.51;41.08;101451.19;5058367;28;20110;-67
2022/06/26 09:29:20;;;;;;;5.13;3.00;;;;;;;28.49;40.68;101453.94;5054999;28;20036;-67
2022/06/26 09:31:45;;;;;;;3.88;2.85;;;;;;;28.50;40.69;101454.81;5060416;28;20029;-67
2022/06/26 09:34:24;;;;;;;3.70;2.90;;;;;;;28.43;40.35;101459.63;5052911;28;20089;-70
2022/06/26 09:37:04;;;;;;;5.03;2.70;;;;;;;28.49;40.14;101456.63;5066909;28;20029;-69
2022/06/26 09:39:31;;;;;;;5.30;2.80;;;;;;;28.51;39.75;101454.75;5069448;28;20032;-69
2022/06/26 09:41:56;;;;;;;3.50;2.47;;;;;;;28.50;39.57;101458.38;5056281;28;20120;-69
2022/06/26 09:44:23;;;;;;;6.43;2.80;;;;;;;28.46;39.42;101462.19;5051034;28;20032;-69
2022/06/26 09:46:49;;;;;;;4.18;2.60;;;;;;;28.46;39.13;101462.19;5053438;28;20041;-69
2022/06/26 09:49:16;;;;;;;4.25;2.88;;;;;;;28.38;40.42;101464.38;5051534;28;20051;-68
2022/06/26 09:51:43;;;;;;;6.28;2.67;;;;;;;28.46;39.66;101464.84;5057258;28;20072;-68
2022/06/26 09:54:08;;;;;;;4.65;2.65;;;;;;;28.49;39.47;101461.13;5050066;28;20028;-67
2022/06/26 09:56:34;;;;;;;4.93;2.60;;;;;;;28.55;39.66;101466.19;5065740;28;20051;-68
2022/06/26 09:59:00;;;;;;;3.83;2.50;;;;;;;28.54;39.75;101472.53;5052496;28;20029;-68
2022/06/26 10:06:58;;;;;;;6.50;2.90;;;;;;;28.61;39.79;101461.38;5069217;28;20086;-68
2022/06/26 10:09:27;;;;;;;7.35;2.90;;;;;;;28.63;39.83;101448.75;5049721;28;20064;-68
2022/06/26 10:11:54;;;;;;;5.07;2.38;;;;;;;28.62;39.96;101452.38;5049563;28;20021;-68
2022/06/26 10:14:23;;;;;;;4.22;2.58;;;;;;;28.62;39.65;101456.88;5049974;28;20470;-68
2022/06/26 10:16:57;;;;;;;10.27;2.65;;;;;;;28.57;39.37;101442.84;5044160;28;20035;-68
2022/06/26 10:19:34;;;;;;;7.22;2.80;;;;;;;28.48;39.30;101449.53;5058725;28;20037;-68
2022/06/26 10:22:00;;;;;;;8.05;2.67;;;;;;;28.53;39.14;101444.81;5053426;28;20027;-67
2022/06/26 10:24:25;;;;;;;7.38;2.45;;;;;;;28.57;39.05;101456.25;5061229;28;20427;-68
2022/06/26 10:26:59;;;;;;;5.85;2.60;;;;;;;28.64;38.93;101463.03;5055021;28;20040;-67
2022/06/26 10:29:39;;;;;;;8.00;2.58;;;;;;;28.59;38.79;101467.78;5064224;28;20091;-68
2022/06/26 10:32:07;;;;;;;5.45;2.50;;;;;;;28.58;38.40;101468.72;5056512;28;20105;-67
2022/06/26 10:34:33;;;;;;;6.72;2.30;;;;;;;28.59;38.45;101465.09;5061685;28;20028;-68
2022/06/26 10:37:02;;;;;;;5.25;2.50;;;;;;;28.59;38.57;101468.66;5057760;28;20059;-68
2022/06/26 10:39:42;;;;;;;6.25;2.63;;;;;;;28.61;38.00;101460.50;5056439;28;20036;-68
2022/06/26 10:45:27;;;;;;;5.22;2.35;;;;;;;28.58;38.01;101460.66;5068724;28;20082;-67
2022/06/26 10:47:55;;;;;;;5.80;2.60;;;;;;;28.56;37.86;101466.09;5064950;28;20104;-67
2022/06/26 10:50:26;;;;;;;4.00;2.30;;;;;;;28.52;37.71;101461.84;5057422;28;20044;-67
2022/06/26 10:52:52;;;;;;;5.28;2.30;;;;;;;28.54;38.05;101459.09;5048475;28;20075;-68
2022/06/26 10:55:18;;;;;;;4.45;2.47;;;;;;;28.58;37.34;101458.84;5058476;28;20536;-67
2022/06/26 10:57:43;;;;;;;6.07;2.58;;;;;;;28.54;37.46;101459.09;5052412;28;20071;-67
2022/06/26 11:00:12;;;;;;;4.53;2.53;;;;;;;28.54;37.50;101461.78;5056280;28;20055;-67
2022/06/26 11:02:41;;;;;;;5.18;2.50;;;;;;;28.55;37.33;101459.00;5050650;28;20609;-68
2022/06/26 11:05:08;;;;;;;3.63;2.20;;;;;;;28.57;36.94;101462.47;5055169;28;20513;-68
2022/06/26 11:07:48;;;;;;;4.72;2.55;;;;;;;28.58;37.27;101461.53;5050503;28;20114;-67
2022/06/26 11:10:16;;;;;;;4.25;2.30;;;;;;;28.60;37.29;101458.78;5061631;28;20025;-68
2022/06/26 11:12:45;;;;;;;4.43;2.30;;;;;;;28.60;37.45;101461.47;5065402;28;20039;-67
2022/06/26 11:15:32;;;;;;;4.03;2.17;;;;;;;28.58;37.03;101458.84;5053014;28;20055;-68
2022/06/26 11:18:04;;;;;;;4.22;2.20;;;;;;;28.59;37.03;101462.41;5043961;28;20071;-67
2022/06/26 11:20:46;;;;;;;3.33;2.40;;;;;;;28.56;37.10;101471.47;5055190;28;20024;-68
2022/06/26 11:23:18;;;;;;;3.97;2.42;;;;;;;28.55;36.87;101477.78;5049856;28;20083;-68
2022/06/26 11:25:48;;;;;;;3.30;2.20;;;;;;;28.56;36.69;101473.28;5052608;28;20044;-68
2022/06/26 11:28:14;;;;;;;3.90;2.25;;;;;;;28.56;36.31;101482.19;5058016;28;20390;-68
2022/06/26 11:30:41;;;;;;;4.80;2.20;;;;;;;28.55;36.33;101484.97;5066734;28;20149;-66
2022/06/26 11:33:08;;;;;;;3.45;2.10;;;;;;;28.58;36.23;101490.19;5050098;28;20021;-66
2022/06/26 11:35:34;;;;;;;5.25;2.50;;;;;;;28.62;36.67;101484.56;5054028;28;20382;-67
2022/06/26 11:38:12;;;;;;;4.65;2.20;;;;;;;28.66;36.96;101485.28;5054167;28;20032;-64
2022/06/26 11:40:37;;;;;;;3.20;2.10;;;;;;;28.69;37.36;101481.56;5056492;28;20029;-76